createdAt,value
2017-08-17T00:01:03.140Z,86.70
2017-08-17T00:03:32.224Z,87.00
2017-08-17T00:06:02.332Z,87.00
2017-08-17T00:08:30.637Z,87.00
2017-08-17T00:10:58.971Z,87.20
2017-08-17T00:13:27.272Z,87.00
2017-08-17T00:15:55.600Z,87.00
2017-08-17T00:18:23.908Z,87.10
2017-08-17T00:20:52.236Z,87.10
2017-08-17T00:23:20.536Z,86.80
2017-08-17T00:25:48.880Z,87.00
2017-08-17T00:28:17.188Z,86.90
2017-08-17T00:30:45.489Z,87.00
2017-08-17T00:33:13.816Z,86.90
2017-08-17T00:35:42.142Z,89.00
2017-08-17T00:38:10.477Z,89.30
2017-08-17T00:40:38.777Z,88.90
2017-08-17T00:43:07.097Z,89.10
2017-08-17T00:45:36.185Z,89.10
2017-08-17T00:48:04.517Z,89.00
2017-08-17T00:50:32.822Z,89.20
2017-08-17T00:53:01.140Z,89.10
2017-08-17T00:55:29.446Z,89.70
2017-08-17T00:57:57.788Z,90.10
2017-08-17T01:00:26.100Z,89.90
2017-08-17T01:02:54.428Z,89.10
2017-08-17T01:05:22.729Z,90.00
2017-08-17T01:07:51.832Z,91.70
2017-08-17T01:10:20.921Z,92.80
2017-08-17T01:15:50.057Z,93.30
2017-08-17T01:18:18.400Z,93.30
2017-08-17T01:20:46.698Z,94.30
2017-08-17T01:23:15.041Z,94.10
2017-08-17T01:25:43.342Z,93.50
2017-08-17T01:28:12.452Z,93.40
2017-08-17T01:30:40.774Z,93.30
2017-08-17T01:33:09.096Z,93.50
2017-08-17T01:35:37.396Z,93.60
2017-08-17T01:38:06.489Z,93.30
2017-08-17T01:40:35.567Z,93.40
2017-08-17T01:43:03.864Z,93.00
2017-08-17T01:45:32.956Z,92.80
2017-08-17T01:48:01.257Z,92.80
2017-08-17T01:50:29.581Z,92.80
2017-08-17T01:52:57.876Z,92.40
2017-08-17T01:55:26.197Z,92.30
2017-08-17T01:57:54.492Z,92.20
2017-08-17T02:00:22.816Z,92.90
2017-08-17T02:02:51.117Z,92.90
2017-08-17T02:05:20.212Z,92.10
2017-08-17T02:07:49.273Z,92.10
2017-08-17T02:10:17.593Z,92.10
2017-08-17T02:12:46.658Z,92.00
2017-08-17T02:15:14.972Z,92.00
2017-08-17T02:17:43.272Z,91.50
2017-08-17T02:20:11.613Z,91.50
2017-08-17T02:22:40.689Z,91.20
2017-08-17T02:25:08.981Z,91.20
2017-08-17T02:27:38.080Z,91.10
2017-08-17T02:30:06.384Z,91.00
2017-08-17T02:35:35.084Z,91.10
2017-08-17T02:38:03.406Z,91.20
2017-08-17T02:40:31.707Z,91.20
2017-08-17T02:43:00.033Z,91.50
2017-08-17T02:45:28.338Z,91.20
2017-08-17T02:47:56.661Z,90.80
2017-08-17T02:50:25.750Z,90.70
2017-08-17T02:52:54.848Z,91.00
2017-08-17T02:55:23.179Z,91.00
2017-08-17T02:57:51.501Z,90.80
2017-08-17T03:00:19.805Z,90.90
2017-08-17T03:02:48.163Z,90.90
2017-08-17T03:05:17.237Z,90.80
2017-08-17T03:07:45.533Z,90.80
2017-08-17T03:10:14.624Z,90.40
2017-08-17T03:12:42.935Z,90.70
2017-08-17T03:15:11.262Z,90.70
2017-08-17T03:17:39.574Z,90.80
2017-08-17T03:20:08.665Z,91.00
2017-08-17T03:22:37.747Z,90.70
2017-08-17T03:25:06.089Z,90.60
2017-08-17T03:27:34.395Z,90.60
2017-08-17T03:30:02.709Z,90.60
2017-08-17T03:32:31.781Z,90.70
2017-08-17T03:35:00.110Z,90.70
2017-08-17T03:37:28.423Z,90.40
2017-08-17T03:39:56.769Z,90.40
2017-08-17T03:42:25.082Z,90.00
2017-08-17T03:44:53.399Z,90.30
2017-08-17T03:47:21.729Z,90.20
2017-08-17T03:49:50.025Z,90.10
2017-08-17T03:52:18.349Z,90.00
2017-08-17T03:54:46.654Z,90.20
2017-08-17T03:57:15.910Z,90.00
2017-08-17T03:59:44.977Z,90.10
2017-08-17T04:02:13.316Z,90.10
2017-08-17T04:04:41.627Z,89.80
2017-08-17T04:07:09.962Z,89.00
2017-08-17T04:09:38.306Z,88.80
2017-08-17T04:12:06.638Z,89.50
2017-08-17T04:14:34.941Z,89.70
2017-08-17T04:17:03.285Z,90.10
2017-08-17T04:19:31.605Z,90.00
2017-08-17T04:21:59.924Z,89.60
2017-08-17T04:24:28.254Z,89.90
2017-08-17T04:26:56.562Z,90.00
2017-08-17T04:29:25.662Z,90.80
2017-08-17T04:31:54.743Z,90.80
2017-08-17T04:34:23.078Z,90.80
2017-08-17T04:36:51.394Z,90.70
2017-08-17T04:39:19.726Z,90.70
2017-08-17T04:41:48.053Z,90.70
2017-08-17T04:44:16.391Z,90.70
2017-08-17T04:46:44.701Z,90.40
2017-08-17T04:49:13.039Z,91.00
2017-08-17T04:51:56.519Z,90.90
2017-08-17T04:54:24.859Z,91.10
2017-08-17T04:57:10.849Z,91.00
2017-08-17T04:59:45.107Z,91.00
2017-08-17T05:02:13.417Z,91.20
2017-08-17T05:04:41.726Z,91.30
2017-08-17T05:07:10.050Z,91.50
2017-08-17T05:09:38.353Z,91.40
2017-08-17T05:12:06.686Z,91.40
2017-08-17T05:14:34.996Z,91.40
2017-08-17T05:17:04.095Z,91.40
2017-08-17T05:19:33.174Z,91.70
2017-08-17T05:22:01.506Z,91.70
2017-08-17T05:24:29.805Z,91.70
2017-08-17T05:26:58.129Z,91.50
2017-08-17T05:29:26.437Z,91.20
2017-08-17T05:31:54.768Z,91.10
2017-08-17T05:34:23.074Z,91.20
2017-08-17T05:36:51.403Z,91.10
2017-08-17T05:39:19.712Z,91.30
2017-08-17T05:41:48.019Z,91.50
2017-08-17T05:44:16.352Z,91.50
2017-08-17T05:46:44.665Z,91.70
2017-08-17T05:49:13.004Z,91.70
2017-08-17T05:51:41.314Z,91.70
2017-08-17T05:54:10.466Z,91.80
2017-08-17T05:56:38.780Z,91.80
2017-08-17T05:59:07.891Z,92.10
2017-08-17T06:01:36.199Z,92.00
2017-08-17T06:04:04.527Z,92.10
2017-08-17T06:06:32.825Z,91.90
2017-08-17T06:09:01.162Z,92.20
2017-08-17T06:11:29.467Z,92.30
2017-08-17T06:13:58.563Z,92.60
2017-08-17T06:16:27.646Z,92.40
2017-08-17T06:18:55.977Z,92.40
2017-08-17T06:21:24.315Z,92.10
2017-08-17T06:23:53.396Z,92.40
2017-08-17T06:26:21.709Z,92.10
2017-08-17T06:28:50.021Z,92.20
2017-08-17T06:31:18.344Z,91.90
2017-08-17T06:33:47.423Z,91.60
2017-08-17T06:36:15.759Z,91.60
2017-08-17T06:38:44.078Z,91.70
2017-08-17T06:41:12.425Z,91.80
2017-08-17T06:43:40.748Z,92.50
2017-08-17T06:46:09.075Z,92.50
2017-08-17T06:48:37.413Z,92.30
2017-08-17T06:51:06.485Z,92.80
2017-08-17T06:53:34.818Z,92.80
2017-08-17T06:56:03.137Z,93.30
2017-08-17T06:58:31.478Z,92.90
2017-08-17T07:00:59.795Z,93.10
2017-08-17T07:03:28.134Z,93.20
2017-08-17T07:05:56.460Z,92.90
2017-08-17T07:08:24.806Z,92.80
2017-08-17T07:10:53.127Z,92.40
2017-08-17T07:13:21.465Z,93.00
2017-08-17T07:15:49.785Z,94.00
2017-08-17T07:18:18.121Z,93.50
2017-08-17T07:20:46.441Z,93.30
2017-08-17T07:23:14.785Z,93.40
2017-08-17T07:25:43.110Z,93.20
2017-08-17T07:28:12.180Z,92.60
2017-08-17T07:30:40.513Z,92.50
2017-08-17T07:33:08.830Z,92.00
2017-08-17T07:35:37.167Z,91.90
2017-08-17T07:38:05.473Z,92.30
2017-08-17T07:40:33.806Z,92.00
2017-08-17T07:43:02.126Z,92.50
2017-08-17T07:45:30.463Z,92.30
2017-08-17T07:47:58.782Z,91.80
2017-08-17T07:50:27.115Z,91.40
2017-08-17T07:52:56.198Z,91.00
2017-08-17T07:55:25.326Z,90.80
2017-08-17T07:57:53.648Z,90.80
2017-08-17T08:00:21.994Z,90.30
2017-08-17T08:02:50.351Z,90.60
2017-08-17T08:05:18.678Z,90.00
2017-08-17T08:07:47.013Z,87.80
2017-08-17T08:10:15.331Z,90.20
2017-08-17T08:12:43.675Z,89.70
2017-08-17T08:15:11.989Z,86.90
2017-08-17T08:17:40.319Z,89.10
2017-08-17T08:20:09.402Z,89.20
2017-08-17T08:22:37.734Z,89.20
2017-08-17T08:25:06.138Z,86.90
2017-08-17T08:27:34.468Z,88.40
2017-08-17T08:30:02.784Z,87.90
2017-08-17T08:32:31.191Z,87.00
2017-08-17T08:34:59.523Z,85.10
2017-08-17T08:37:27.875Z,83.90
2017-08-17T08:39:56.940Z,81.40
2017-08-17T08:42:25.245Z,81.40
2017-08-17T08:44:53.562Z,83.90
2017-08-17T08:47:21.875Z,80.90
2017-08-17T08:49:50.202Z,81.90
2017-08-17T08:52:18.514Z,81.60
2017-08-17T08:54:46.839Z,81.00
2017-08-17T08:57:15.147Z,78.60
2017-08-17T08:59:43.473Z,80.00
2017-08-17T09:02:11.781Z,80.40
2017-08-17T09:04:40.117Z,80.40
2017-08-17T09:07:08.425Z,78.20
2017-08-17T09:09:36.750Z,78.00
2017-08-17T09:12:05.051Z,77.50
2017-08-17T09:14:33.383Z,77.90
2017-08-17T09:17:01.689Z,75.20
2017-08-17T09:19:29.993Z,76.60
2017-08-17T09:21:58.321Z,77.20
2017-08-17T09:24:26.642Z,74.50
2017-08-17T09:26:54.990Z,76.00
2017-08-17T09:29:23.303Z,75.70
2017-08-17T09:31:51.634Z,73.30
2017-08-17T09:34:19.955Z,74.10
2017-08-17T09:36:48.269Z,73.70
2017-08-17T09:39:16.587Z,73.00
2017-08-17T09:41:44.921Z,74.10
2017-08-17T09:44:13.234Z,71.00
2017-08-17T09:46:41.543Z,71.50
2017-08-17T09:49:09.887Z,70.00
2017-08-17T09:51:38.201Z,71.10
2017-08-17T09:54:06.522Z,70.60
2017-08-17T09:56:34.824Z,71.30
2017-08-17T09:59:03.167Z,71.00
2017-08-17T10:01:32.245Z,68.70
2017-08-17T10:04:00.565Z,68.50
2017-08-17T10:06:28.869Z,69.70
2017-08-17T10:08:57.185Z,68.50
2017-08-17T10:11:26.263Z,67.80
2017-08-17T10:13:55.389Z,68.00
2017-08-17T10:16:23.696Z,68.00
2017-08-17T10:18:52.009Z,68.20
2017-08-17T10:21:20.347Z,67.00
2017-08-17T10:23:48.655Z,64.80
2017-08-17T10:26:16.986Z,71.50
2017-08-17T10:28:45.297Z,70.70
2017-08-17T10:31:13.627Z,67.10
2017-08-17T10:33:41.934Z,69.50
2017-08-17T10:36:10.263Z,67.30
2017-08-17T10:38:38.571Z,65.00
2017-08-17T10:41:07.667Z,66.10
2017-08-17T10:43:35.970Z,66.10
2017-08-17T10:46:04.297Z,67.80
2017-08-17T10:48:32.607Z,68.90
2017-08-17T10:51:00.929Z,67.60
2017-08-17T10:53:29.230Z,67.70
2017-08-17T10:55:57.559Z,67.00
2017-08-17T10:58:25.894Z,66.90
2017-08-17T11:00:54.202Z,66.20
2017-08-17T11:03:22.526Z,66.80
2017-08-17T11:05:50.831Z,68.50
2017-08-17T11:08:19.158Z,68.20
2017-08-17T11:10:47.467Z,69.30
2017-08-17T11:13:15.802Z,68.50
2017-08-17T11:15:44.103Z,70.10
2017-08-17T11:18:12.405Z,68.80
2017-08-17T11:20:40.738Z,66.50
2017-08-17T11:23:09.050Z,66.50
2017-08-17T11:25:37.379Z,70.60
2017-08-17T11:28:05.681Z,68.20
2017-08-17T11:30:34.009Z,65.40
2017-08-17T11:33:02.318Z,66.20
2017-08-17T11:35:30.646Z,66.90
2017-08-17T11:38:40.822Z,64.00
2017-08-17T11:41:09.162Z,68.20
2017-08-17T11:43:37.483Z,69.20
2017-08-17T11:46:06.567Z,65.40
2017-08-17T11:48:34.414Z,65.30
2017-08-17T11:51:02.224Z,65.50
2017-08-17T11:53:31.322Z,65.90
2017-08-17T11:56:00.397Z,64.70
2017-08-17T11:58:28.734Z,64.70
2017-08-17T12:00:57.043Z,65.30
2017-08-17T12:03:25.374Z,66.50
2017-08-17T12:05:53.681Z,65.10
2017-08-17T12:08:22.026Z,65.00
2017-08-17T12:10:50.347Z,66.00
2017-08-17T12:13:18.694Z,65.80
2017-08-17T12:15:47.009Z,65.60
2017-08-17T12:18:15.345Z,66.10
2017-08-17T12:20:43.649Z,64.50
2017-08-17T12:23:11.979Z,64.90
2017-08-17T12:25:40.330Z,66.00
2017-08-17T12:28:08.643Z,66.20
2017-08-17T12:30:36.982Z,65.80
2017-08-17T12:33:05.291Z,65.30
2017-08-17T12:35:34.382Z,65.50
2017-08-17T12:38:03.459Z,66.60
2017-08-17T12:40:31.821Z,66.60
2017-08-17T12:43:00.125Z,65.60
2017-08-17T12:45:28.449Z,65.50
2017-08-17T12:47:56.753Z,64.90
2017-08-17T12:50:25.090Z,62.80
2017-08-17T12:52:53.401Z,62.20
2017-08-17T12:55:21.755Z,60.90
2017-08-17T12:57:50.066Z,61.30
2017-08-17T13:00:18.394Z,62.40
2017-08-17T13:02:46.694Z,62.50
2017-08-17T13:05:15.037Z,62.20
2017-08-17T13:07:43.357Z,62.80
2017-08-17T13:10:11.674Z,59.30
2017-08-17T13:12:40.012Z,61.70
2017-08-17T13:15:08.330Z,61.00
2017-08-17T13:17:36.654Z,61.20
2017-08-17T13:20:04.968Z,60.90
2017-08-17T13:22:33.297Z,59.60
2017-08-17T13:25:01.599Z,58.60
2017-08-17T13:27:29.936Z,55.90
2017-08-17T13:29:59.015Z,57.70
2017-08-17T13:32:27.350Z,57.70
2017-08-17T13:34:55.658Z,58.60
2017-08-17T13:37:23.961Z,59.50
2017-08-17T13:39:53.048Z,57.20
2017-08-17T13:42:21.352Z,57.20
2017-08-17T13:44:49.673Z,57.10
2017-08-17T13:47:17.985Z,57.20
2017-08-17T13:49:46.316Z,57.30
2017-08-17T13:52:14.644Z,57.80
2017-08-17T13:54:43.750Z,57.20
2017-08-17T13:57:12.822Z,56.60
2017-08-17T13:59:41.149Z,56.50
2017-08-17T14:02:09.456Z,57.50
2017-08-17T14:04:37.779Z,58.50
2017-08-17T14:07:06.111Z,56.10
2017-08-17T14:09:34.415Z,55.30
2017-08-17T14:12:02.753Z,54.80
2017-08-17T14:14:31.067Z,55.10
2017-08-17T14:16:59.403Z,55.20
2017-08-17T14:19:27.729Z,55.30
2017-08-17T14:21:56.058Z,55.80
2017-08-17T14:24:24.361Z,56.60
2017-08-17T14:26:52.691Z,54.00
2017-08-17T14:29:21.010Z,53.90
2017-08-17T14:31:49.346Z,54.80
2017-08-17T14:34:17.660Z,55.00
2017-08-17T14:36:46.886Z,53.20
2017-08-17T14:39:15.210Z,53.80
2017-08-17T14:41:43.530Z,55.00
2017-08-17T14:44:11.863Z,54.60
2017-08-17T14:46:40.183Z,54.40
2017-08-17T14:49:08.510Z,54.50
2017-08-17T14:51:37.582Z,55.90
2017-08-17T14:54:05.914Z,55.80
2017-08-17T14:56:34.219Z,55.00
2017-08-17T14:59:02.551Z,55.70
2017-08-17T15:01:30.862Z,55.30
2017-08-17T15:03:59.217Z,56.00
2017-08-17T15:06:27.529Z,55.70
2017-08-17T15:08:55.843Z,56.70
2017-08-17T15:11:24.937Z,55.40
2017-08-17T15:13:54.018Z,55.70
2017-08-17T15:16:22.350Z,55.60
2017-08-17T15:18:50.663Z,57.20
2017-08-17T15:21:18.990Z,55.50
2017-08-17T15:23:47.304Z,56.60
2017-08-17T15:26:15.647Z,56.80
2017-08-17T15:28:43.965Z,56.70
2017-08-17T15:31:12.292Z,56.50
2017-08-17T15:33:40.593Z,58.00
2017-08-17T15:36:08.935Z,57.30
2017-08-17T15:38:38.007Z,57.40
2017-08-17T15:41:06.315Z,57.40
2017-08-17T15:43:34.637Z,57.30
2017-08-17T15:46:02.947Z,58.60
2017-08-17T15:48:31.286Z,58.00
2017-08-17T15:50:59.590Z,57.60
2017-08-17T15:53:27.929Z,57.70
2017-08-17T15:55:56.242Z,57.50
2017-08-17T15:58:24.586Z,58.70
2017-08-17T16:00:52.896Z,58.70
2017-08-17T16:03:21.222Z,57.40
2017-08-17T16:05:49.536Z,57.70
2017-08-17T16:08:17.866Z,57.50
2017-08-17T16:10:46.942Z,57.70
2017-08-17T16:13:15.277Z,57.60
2017-08-17T16:15:43.581Z,56.80
2017-08-17T16:18:11.926Z,56.40
2017-08-17T16:20:40.235Z,56.80
2017-08-17T16:23:08.542Z,58.00
2017-08-17T16:25:37.647Z,57.70
2017-08-17T16:28:06.719Z,58.60
2017-08-17T16:30:35.045Z,58.00
2017-08-17T16:33:03.376Z,57.60
2017-08-17T16:35:31.710Z,57.90
2017-08-17T16:38:00.018Z,57.90
2017-08-17T16:40:28.367Z,57.80
2017-08-17T16:42:56.671Z,58.70
2017-08-17T16:45:25.000Z,58.30
2017-08-17T16:47:53.315Z,58.70
2017-08-17T16:50:21.660Z,59.20
2017-08-17T16:52:49.976Z,58.90
2017-08-17T16:55:21.785Z,59.40
2017-08-17T16:57:50.858Z,59.30
2017-08-17T17:00:19.160Z,59.20
2017-08-17T17:02:50.940Z,58.50
2017-08-17T17:05:19.241Z,58.90
2017-08-17T17:07:47.569Z,57.80
2017-08-17T17:10:16.656Z,57.30
2017-08-17T17:12:44.987Z,57.30
2017-08-17T17:15:13.298Z,56.50
2017-08-17T17:17:41.634Z,56.70
2017-08-17T17:20:09.950Z,55.20
2017-08-17T17:22:38.293Z,56.00
2017-08-17T17:25:06.614Z,56.50
2017-08-17T17:27:34.934Z,56.30
2017-08-17T17:30:03.268Z,56.60
2017-08-17T17:32:31.587Z,56.50
2017-08-17T17:34:59.939Z,56.90
2017-08-17T17:37:28.264Z,57.40
2017-08-17T17:39:56.722Z,57.40
2017-08-17T17:42:25.025Z,57.40
2017-08-17T17:44:53.357Z,57.60
2017-08-17T17:47:21.675Z,57.60
2017-08-17T17:49:49.996Z,58.10
2017-08-17T17:52:18.299Z,58.50
2017-08-17T17:54:47.412Z,59.30
2017-08-17T17:57:15.722Z,59.20
2017-08-17T17:59:44.025Z,58.80
2017-08-17T18:02:12.367Z,58.90
2017-08-17T18:04:40.675Z,58.30
2017-08-17T18:07:09.008Z,59.70
2017-08-17T18:09:37.333Z,59.00
2017-08-17T18:12:05.670Z,60.70
2017-08-17T18:14:33.977Z,61.10
2017-08-17T18:17:02.308Z,61.50
2017-08-17T18:19:43.246Z,62.60
2017-08-17T18:22:11.575Z,62.90
2017-08-17T18:24:39.936Z,63.70
2017-08-17T18:27:08.441Z,63.90
2017-08-17T18:29:36.747Z,64.70
2017-08-17T18:32:05.094Z,65.70
2017-08-17T18:34:33.533Z,66.50
2017-08-17T18:37:01.847Z,66.80
2017-08-17T18:39:30.171Z,67.20
2017-08-17T18:41:58.477Z,67.10
2017-08-17T18:44:27.748Z,66.60
2017-08-17T18:46:56.055Z,66.60
2017-08-17T18:49:25.356Z,68.00
2017-08-17T18:51:54.424Z,67.20
2017-08-17T18:54:22.755Z,67.20
2017-08-17T18:56:51.062Z,69.10
2017-08-17T18:59:19.390Z,68.90
2017-08-17T19:01:47.698Z,70.20
2017-08-17T19:04:16.038Z,69.70
2017-08-17T19:06:45.765Z,70.90
2017-08-17T19:09:14.097Z,70.80
2017-08-17T19:11:42.406Z,71.40
2017-08-17T19:14:10.709Z,71.60
2017-08-17T19:16:45.433Z,71.60
2017-08-17T19:19:13.745Z,71.10
2017-08-17T19:21:42.073Z,71.20
2017-08-17T19:24:11.173Z,71.90
2017-08-17T19:26:40.272Z,71.70
2017-08-17T19:29:08.579Z,71.60
2017-08-17T19:31:36.905Z,72.90
2017-08-17T19:34:05.213Z,73.40
2017-08-17T19:36:34.322Z,74.50
2017-08-17T19:39:02.649Z,74.40
2017-08-17T19:41:30.981Z,74.00
2017-08-17T19:43:59.289Z,74.90
2017-08-17T19:46:27.639Z,74.90
2017-08-17T19:48:55.955Z,75.50
2017-08-17T19:51:24.286Z,75.40
2017-08-17T19:53:52.622Z,75.90
2017-08-17T19:56:20.936Z,75.90
2017-08-17T19:58:50.033Z,76.80
2017-08-17T20:01:18.352Z,76.80
2017-08-17T20:03:46.679Z,77.10
2017-08-17T20:06:14.997Z,76.80
2017-08-17T20:08:43.342Z,77.00
2017-08-17T20:11:11.645Z,78.00
2017-08-17T20:13:39.982Z,76.20
2017-08-17T20:16:09.064Z,76.70
2017-08-17T20:18:37.426Z,76.70
2017-08-17T20:21:05.758Z,78.20
2017-08-17T20:23:34.066Z,78.80
2017-08-17T20:26:02.394Z,79.00
2017-08-17T20:28:31.457Z,79.40
2017-08-17T20:30:59.791Z,79.30
2017-08-17T20:33:28.115Z,80.20
2017-08-17T20:35:56.453Z,79.90
2017-08-17T20:38:24.767Z,80.50
2017-08-17T20:40:53.106Z,80.20
2017-08-17T20:43:21.422Z,79.70
2017-08-17T20:45:49.741Z,80.10
2017-08-17T20:48:18.815Z,80.20
2017-08-17T20:50:47.172Z,80.20
2017-08-17T20:53:15.643Z,80.20
2017-08-17T20:55:43.961Z,80.30
2017-08-17T20:58:13.088Z,80.40
2017-08-17T21:00:41.512Z,81.10
2017-08-17T21:03:09.846Z,80.90
2017-08-17T21:05:38.163Z,80.00
2017-08-17T21:08:06.503Z,80.30
2017-08-17T21:10:34.815Z,80.80
2017-08-17T21:16:03.075Z,80.30
2017-08-17T21:18:32.170Z,81.10
2017-08-17T21:21:00.491Z,81.10
2017-08-17T21:23:28.843Z,81.10
2017-08-17T21:25:57.150Z,81.00
2017-08-17T21:28:25.471Z,81.50
2017-08-17T21:30:54.582Z,81.20
2017-08-17T21:33:22.898Z,81.20
2017-08-17T21:35:51.233Z,82.00
2017-08-17T21:38:20.305Z,81.90
2017-08-17T21:40:48.625Z,81.80
2017-08-17T21:43:16.928Z,81.40
2017-08-17T21:45:45.258Z,82.10
2017-08-17T21:48:14.330Z,82.50
2017-08-17T21:50:42.671Z,82.40
2017-08-17T21:53:10.985Z,82.60
2017-08-17T21:55:39.318Z,83.40
2017-08-17T21:58:07.626Z,83.80
2017-08-17T22:00:35.953Z,83.70
2017-08-17T22:03:04.305Z,83.50
2017-08-17T22:05:32.610Z,83.50
2017-08-17T22:08:01.702Z,83.60
2017-08-17T22:10:30.010Z,83.60
2017-08-17T22:12:58.343Z,82.90
2017-08-17T22:15:27.420Z,84.00
2017-08-17T22:17:55.755Z,83.90
2017-08-17T22:20:24.062Z,85.30
2017-08-17T22:22:52.383Z,85.50
2017-08-17T22:25:21.470Z,83.80
2017-08-17T22:27:49.817Z,83.70
2017-08-17T22:30:18.138Z,84.00
2017-08-17T22:32:47.219Z,83.50
2017-08-17T22:35:15.552Z,83.50
2017-08-17T22:37:43.867Z,83.60
2017-08-17T22:40:12.198Z,84.20
2017-08-17T22:42:40.506Z,84.60
2017-08-17T22:45:08.839Z,84.20
2017-08-17T22:47:37.167Z,84.30
2017-08-17T22:50:25.064Z,84.20
2017-08-17T22:52:53.376Z,85.20
2017-08-17T22:55:21.699Z,88.00
2017-08-17T22:57:50.002Z,87.90
2017-08-17T23:00:18.334Z,87.00
2017-08-17T23:02:47.426Z,85.50
2017-08-17T23:05:16.568Z,86.00
2017-08-17T23:07:44.886Z,86.00
2017-08-17T23:10:13.206Z,86.00
2017-08-17T23:12:41.550Z,85.80
2017-08-17T23:15:09.856Z,85.30
2017-08-17T23:17:38.202Z,85.50
2017-08-17T23:20:06.507Z,85.70
2017-08-17T23:22:34.856Z,85.60
2017-08-17T23:25:03.177Z,85.60
2017-08-17T23:30:26.354Z,86.20
2017-08-17T23:32:54.686Z,86.70
2017-08-17T23:35:22.994Z,86.50
2017-08-17T23:37:54.459Z,86.90
2017-08-17T23:40:23.545Z,87.70
2017-08-17T23:42:51.877Z,87.20
2017-08-17T23:45:20.176Z,86.50
2017-08-17T23:47:48.513Z,88.00
2017-08-17T23:50:16.822Z,88.10
2017-08-17T23:52:45.156Z,87.10
2017-08-17T23:55:14.226Z,86.70
2017-08-17T23:57:42.535Z,86.70
